sensor_id;sensor_type;location;lat;lon;timestamp;P1;durP1;ratioP1;P2;durP2;ratioP2
974;SDS011;6115;49.296;10.602;2022-12-18T00:00:40;20.97;;;10.67;;
974;SDS011;6115;49.296;10.602;2022-12-18T00:05:50;21.63;;;9.03;;
974;SDS011;6115;49.296;10.602;2022-12-18T00:10:52;36.83;;;15.90;;
974;SDS011;6115;49.296;10.602;2022-12-18T00:15:52;35.73;;;16.00;;
974;SDS011;6115;49.296;10.602;2022-12-18T00:20:53;22.93;;;10.53;;
974;SDS011;6115;49.296;10.602;2022-12-18T00:25:53;20.67;;;12.07;;
974;SDS011;6115;49.296;10.602;2022-12-18T00:31:04;20.47;;;10.23;;
974;SDS011;6115;49.296;10.602;2022-12-18T00:36:10;13.00;;;7.20;;
974;SDS011;6115;49.296;10.602;2022-12-18T00:41:18;17.70;;;9.10;;
974;SDS011;6115;49.296;10.602;2022-12-18T00:46:38;14.37;;;6.77;;
974;SDS011;6115;49.296;10.602;2022-12-18T00:51:38;22.43;;;11.60;;
974;SDS011;6115;49.296;10.602;2022-12-18T00:56:39;21.13;;;9.03;;
974;SDS011;6115;49.296;10.602;2022-12-18T01:01:40;22.40;;;10.37;;
974;SDS011;6115;49.296;10.602;2022-12-18T01:06:40;23.40;;;12.17;;
974;SDS011;6115;49.296;10.602;2022-12-18T01:11:41;13.00;;;7.37;;
974;SDS011;6115;49.296;10.602;2022-12-18T01:16:41;19.67;;;9.40;;
974;SDS011;6115;49.296;10.602;2022-12-18T01:21:42;28.43;;;11.17;;
974;SDS011;6115;49.296;10.602;2022-12-18T01:26:42;13.50;;;8.53;;
974;SDS011;6115;49.296;10.602;2022-12-18T01:31:43;14.33;;;7.97;;
974;SDS011;6115;49.296;10.602;2022-12-18T01:36:44;25.03;;;9.63;;
974;SDS011;6115;49.296;10.602;2022-12-18T01:41:45;20.03;;;12.00;;
974;SDS011;6115;49.296;10.602;2022-12-18T01:47:04;19.57;;;9.97;;
974;SDS011;6115;49.296;10.602;2022-12-18T01:52:04;18.97;;;9.63;;
974;SDS011;6115;49.296;10.602;2022-12-18T01:57:05;14.73;;;9.37;;
974;SDS011;6115;49.296;10.602;2022-12-18T02:02:06;21.47;;;13.20;;
974;SDS011;6115;49.296;10.602;2022-12-18T02:07:13;28.33;;;11.07;;
974;SDS011;6115;49.296;10.602;2022-12-18T02:12:48;27.57;;;11.50;;
974;SDS011;6115;49.296;10.602;2022-12-18T02:17:52;28.20;;;10.13;;
974;SDS011;6115;49.296;10.602;2022-12-18T02:23:20;24.37;;;11.83;;
974;SDS011;6115;49.296;10.602;2022-12-18T02:28:25;31.00;;;11.40;;
974;SDS011;6115;49.296;10.602;2022-12-18T02:33:31;30.03;;;12.87;;
974;SDS011;6115;49.296;10.602;2022-12-18T02:38:33;34.23;;;13.00;;
974;SDS011;6115;49.296;10.602;2022-12-18T02:43:34;38.63;;;10.67;;
974;SDS011;6115;49.296;10.602;2022-12-18T02:48:35;27.60;;;10.33;;
974;SDS011;6115;49.296;10.602;2022-12-18T02:53:41;27.70;;;10.60;;
974;SDS011;6115;49.296;10.602;2022-12-18T02:59:06;30.70;;;10.47;;
974;SDS011;6115;49.296;10.602;2022-12-18T03:04:18;27.67;;;11.30;;
974;SDS011;6115;49.296;10.602;2022-12-18T03:09:32;18.67;;;8.70;;
974;SDS011;6115;49.296;10.602;2022-12-18T03:14:36;34.43;;;15.57;;
974;SDS011;6115;49.296;10.602;2022-12-18T03:19:40;32.10;;;14.17;;
974;SDS011;6115;49.296;10.602;2022-12-18T03:24:42;32.07;;;14.00;;
974;SDS011;6115;49.296;10.602;2022-12-18T03:29:47;38.20;;;13.93;;
974;SDS011;6115;49.296;10.602;2022-12-18T03:34:53;26.80;;;12.63;;
974;SDS011;6115;49.296;10.602;2022-12-18T03:39:57;31.43;;;16.27;;
974;SDS011;6115;49.296;10.602;2022-12-18T03:50:16;41.10;;;18.97;;
974;SDS011;6115;49.296;10.602;2022-12-18T03:55:27;41.23;;;15.57;;
974;SDS011;6115;49.296;10.602;2022-12-18T04:00:31;35.23;;;12.50;;
974;SDS011;6115;49.296;10.602;2022-12-18T04:05:33;47.93;;;19.33;;
974;SDS011;6115;49.296;10.602;2022-12-18T04:10:36;49.27;;;18.30;;
974;SDS011;6115;49.296;10.602;2022-12-18T04:15:37;32.90;;;12.30;;
974;SDS011;6115;49.296;10.602;2022-12-18T04:20:39;42.30;;;14.90;;
974;SDS011;6115;49.296;10.602;2022-12-18T04:25:40;39.30;;;15.70;;
974;SDS011;6115;49.296;10.602;2022-12-18T04:30:40;45.27;;;16.40;;
974;SDS011;6115;49.296;10.602;2022-12-18T04:35:41;52.13;;;18.70;;
974;SDS011;6115;49.296;10.602;2022-12-18T04:40:42;38.93;;;12.67;;
974;SDS011;6115;49.296;10.602;2022-12-18T04:45:43;29.67;;;14.00;;
974;SDS011;6115;49.296;10.602;2022-12-18T04:50:43;38.53;;;12.70;;
974;SDS011;6115;49.296;10.602;2022-12-18T04:55:44;38.07;;;12.50;;
974;SDS011;6115;49.296;10.602;2022-12-18T05:00:44;33.03;;;11.50;;
974;SDS011;6115;49.296;10.602;2022-12-18T05:05:45;29.90;;;10.40;;
974;SDS011;6115;49.296;10.602;2022-12-18T05:10:48;30.40;;;12.97;;
974;SDS011;6115;49.296;10.602;2022-12-18T05:15:52;29.40;;;10.60;;
974;SDS011;6115;49.296;10.602;2022-12-18T05:20:53;33.77;;;14.60;;
974;SDS011;6115;49.296;10.602;2022-12-18T05:25:58;28.93;;;12.20;;
974;SDS011;6115;49.296;10.602;2022-12-18T05:31:01;34.00;;;11.97;;
974;SDS011;6115;49.296;10.602;2022-12-18T05:36:04;30.20;;;9.80;;
974;SDS011;6115;49.296;10.602;2022-12-18T05:41:06;27.23;;;9.30;;
974;SDS011;6115;49.296;10.602;2022-12-18T05:46:08;29.43;;;11.10;;
974;SDS011;6115;49.296;10.602;2022-12-18T05:51:14;26.77;;;9.97;;
974;SDS011;6115;49.296;10.602;2022-12-18T05:56:17;32.87;;;11.57;;
974;SDS011;6115;49.296;10.602;2022-12-18T06:01:22;33.80;;;11.73;;
974;SDS011;6115;49.296;10.602;2022-12-18T06:06:26;23.10;;;8.50;;
974;SDS011;6115;49.296;10.602;2022-12-18T06:11:27;24.73;;;9.90;;
974;SDS011;6115;49.296;10.602;2022-12-18T06:16:28;34.67;;;10.50;;
974;SDS011;6115;49.296;10.602;2022-12-18T06:21:29;23.73;;;10.33;;
974;SDS011;6115;49.296;10.602;2022-12-18T06:26:31;34.93;;;12.80;;
974;SDS011;6115;49.296;10.602;2022-12-18T06:31:31;21.27;;;6.77;;
974;SDS011;6115;49.296;10.602;2022-12-18T06:36:32;37.80;;;12.90;;
974;SDS011;6115;49.296;10.602;2022-12-18T06:41:33;25.87;;;9.43;;
974;SDS011;6115;49.296;10.602;2022-12-18T06:46:33;25.97;;;8.97;;
974;SDS011;6115;49.296;10.602;2022-12-18T06:51:34;32.70;;;9.97;;
974;SDS011;6115;49.296;10.602;2022-12-18T06:56:34;28.70;;;9.70;;
974;SDS011;6115;49.296;10.602;2022-12-18T07:01:35;28.67;;;8.93;;
974;SDS011;6115;49.296;10.602;2022-12-18T07:06:35;31.70;;;12.40;;
974;SDS011;6115;49.296;10.602;2022-12-18T07:11:36;28.57;;;9.50;;
974;SDS011;6115;49.296;10.602;2022-12-18T07:16:37;25.57;;;8.17;;
974;SDS011;6115;49.296;10.602;2022-12-18T07:21:37;32.57;;;10.77;;
974;SDS011;6115;49.296;10.602;2022-12-18T07:26:38;32.40;;;10.97;;
974;SDS011;6115;49.296;10.602;2022-12-18T07:31:38;33.53;;;10.27;;
974;SDS011;6115;49.296;10.602;2022-12-18T07:36:39;39.53;;;13.50;;
974;SDS011;6115;49.296;10.602;2022-12-18T07:41:40;33.90;;;11.10;;
974;SDS011;6115;49.296;10.602;2022-12-18T07:46:45;28.60;;;8.63;;
974;SDS011;6115;49.296;10.602;2022-12-18T07:51:46;39.80;;;12.53;;
974;SDS011;6115;49.296;10.602;2022-12-18T07:56:49;40.67;;;14.30;;
974;SDS011;6115;49.296;10.602;2022-12-18T08:01:50;39.57;;;13.87;;
974;SDS011;6115;49.296;10.602;2022-12-18T08:06:50;54.57;;;17.67;;
974;SDS011;6115;49.296;10.602;2022-12-18T08:11:51;46.03;;;16.80;;
974;SDS011;6115;49.296;10.602;2022-12-18T08:16:51;51.27;;;20.90;;
974;SDS011;6115;49.296;10.602;2022-12-18T08:21:52;52.47;;;21.03;;
974;SDS011;6115;49.296;10.602;2022-12-18T08:26:53;63.50;;;27.03;;
974;SDS011;6115;49.296;10.602;2022-12-18T08:31:53;56.77;;;22.07;;
974;SDS011;6115;49.296;10.602;2022-12-18T08:36:54;55.60;;;25.47;;
974;SDS011;6115;49.296;10.602;2022-12-18T08:41:54;60.87;;;28.07;;
974;SDS011;6115;49.296;10.602;2022-12-18T08:47:13;50.43;;;24.70;;
974;SDS011;6115;49.296;10.602;2022-12-18T08:52:14;60.27;;;26.37;;
974;SDS011;6115;49.296;10.602;2022-12-18T08:57:14;61.53;;;33.40;;
974;SDS011;6115;49.296;10.602;2022-12-18T09:02:16;75.10;;;50.37;;
974;SDS011;6115;49.296;10.602;2022-12-18T09:07:17;80.80;;;56.23;;
974;SDS011;6115;49.296;10.602;2022-12-18T09:12:17;83.37;;;64.23;;
974;SDS011;6115;49.296;10.602;2022-12-18T09:17:18;87.87;;;76.53;;
974;SDS011;6115;49.296;10.602;2022-12-18T09:22:18;84.57;;;72.33;;
974;SDS011;6115;49.296;10.602;2022-12-18T09:27:19;123.43;;;111.83;;
974;SDS011;6115;49.296;10.602;2022-12-18T09:32:19;214.50;;;198.80;;
974;SDS011;6115;49.296;10.602;2022-12-18T09:37:20;193.60;;;178.83;;
974;SDS011;6115;49.296;10.602;2022-12-18T09:42:21;142.40;;;130.67;;
974;SDS011;6115;49.296;10.602;2022-12-18T09:47:33;211.77;;;196.37;;
974;SDS011;6115;49.296;10.602;2022-12-18T09:52:37;198.93;;;184.00;;
974;SDS011;6115;49.296;10.602;2022-12-18T09:57:46;240.07;;;223.50;;
974;SDS011;6115;49.296;10.602;2022-12-18T10:02:51;379.63;;;355.33;;
974;SDS011;6115;49.296;10.602;2022-12-18T10:13:31;512.30;;;481.30;;
974;SDS011;6115;49.296;10.602;2022-12-18T10:29:20;588.53;;;551.50;;
974;SDS011;6115;49.296;10.602;2022-12-18T10:34:21;502.33;;;471.57;;
974;SDS011;6115;49.296;10.602;2022-12-18T10:39:22;463.07;;;434.57;;
974;SDS011;6115;49.296;10.602;2022-12-18T10:44:26;548.60;;;514.63;;
974;SDS011;6115;49.296;10.602;2022-12-18T10:49:27;687.60;;;644.10;;
974;SDS011;6115;49.296;10.602;2022-12-18T10:54:34;778.80;;;727.03;;
974;SDS011;6115;49.296;10.602;2022-12-18T10:59:49;786.43;;;733.70;;
974;SDS011;6115;49.296;10.602;2022-12-18T11:04:54;716.87;;;670.90;;
974;SDS011;6115;49.296;10.602;2022-12-18T11:10:01;679.97;;;636.47;;
974;SDS011;6115;49.296;10.602;2022-12-18T11:15:02;693.87;;;649.20;;
974;SDS011;6115;49.296;10.602;2022-12-18T11:20:07;740.67;;;692.10;;
974;SDS011;6115;49.296;10.602;2022-12-18T11:25:21;719.07;;;671.37;;
974;SDS011;6115;49.296;10.602;2022-12-18T11:30:24;678.30;;;634.10;;
974;SDS011;6115;49.296;10.602;2022-12-18T11:40:51;501.43;;;470.53;;
974;SDS011;6115;49.296;10.602;2022-12-18T11:45:55;338.50;;;317.27;;
974;SDS011;6115;49.296;10.602;2022-12-18T11:51:08;382.83;;;359.33;;
974;SDS011;6115;49.296;10.602;2022-12-18T11:56:26;346.70;;;325.00;;
974;SDS011;6115;49.296;10.602;2022-12-18T12:01:38;415.97;;;390.27;;
974;SDS011;6115;49.296;10.602;2022-12-18T12:07:03;547.13;;;512.27;;
974;SDS011;6115;49.296;10.602;2022-12-18T12:12:35;603.00;;;564.03;;
974;SDS011;6115;49.296;10.602;2022-12-18T12:17:55;650.93;;;608.63;;
974;SDS011;6115;49.296;10.602;2022-12-18T12:23:20;643.67;;;602.07;;
974;SDS011;6115;49.296;10.602;2022-12-18T12:39:17;617.90;;;578.30;;
974;SDS011;6115;49.296;10.602;2022-12-18T12:44:25;620.33;;;580.50;;
974;SDS011;6115;49.296;10.602;2022-12-18T12:49:27;621.37;;;582.00;;
974;SDS011;6115;49.296;10.602;2022-12-18T12:54:32;573.80;;;537.90;;
974;SDS011;6115;49.296;10.602;2022-12-18T12:59:52;533.70;;;500.40;;
974;SDS011;6115;49.296;10.602;2022-12-18T13:15:33;584.70;;;548.20;;
974;SDS011;6115;49.296;10.602;2022-12-18T13:25:36;575.90;;;538.90;;
974;SDS011;6115;49.296;10.602;2022-12-18T13:30:42;582.50;;;545.60;;
974;SDS011;6115;49.296;10.602;2022-12-18T13:51:00;561.13;;;525.17;;
974;SDS011;6115;49.296;10.602;2022-12-18T13:56:06;539.17;;;504.67;;
974;SDS011;6115;49.296;10.602;2022-12-18T14:01:20;546.93;;;511.73;;
974;SDS011;6115;49.296;10.602;2022-12-18T14:06:23;516.43;;;483.77;;
974;SDS011;6115;49.296;10.602;2022-12-18T14:11:24;459.77;;;429.47;;
974;SDS011;6115;49.296;10.602;2022-12-18T14:16:25;312.73;;;292.77;;
974;SDS011;6115;49.296;10.602;2022-12-18T14:21:27;304.40;;;284.37;;
974;SDS011;6115;49.296;10.602;2022-12-18T14:26:30;240.87;;;223.17;;
974;SDS011;6115;49.296;10.602;2022-12-18T14:31:31;178.37;;;163.47;;
974;SDS011;6115;49.296;10.602;2022-12-18T14:36:32;153.97;;;139.57;;
974;SDS011;6115;49.296;10.602;2022-12-18T14:41:32;147.87;;;132.80;;
974;SDS011;6115;49.296;10.602;2022-12-18T14:46:36;97.03;;;76.60;;
974;SDS011;6115;49.296;10.602;2022-12-18T14:51:38;86.67;;;56.40;;
974;SDS011;6115;49.296;10.602;2022-12-18T14:56:46;84.60;;;46.90;;
974;SDS011;6115;49.296;10.602;2022-12-18T15:01:55;81.27;;;37.17;;
974;SDS011;6115;49.296;10.602;2022-12-18T15:07:20;70.93;;;32.83;;
974;SDS011;6115;49.296;10.602;2022-12-18T15:12:25;74.03;;;29.83;;
974;SDS011;6115;49.296;10.602;2022-12-18T15:17:32;63.50;;;27.83;;
974;SDS011;6115;49.296;10.602;2022-12-18T15:22:33;80.87;;;32.63;;
974;SDS011;6115;49.296;10.602;2022-12-18T15:27:36;70.87;;;33.40;;
974;SDS011;6115;49.296;10.602;2022-12-18T15:32:38;75.27;;;37.10;;
974;SDS011;6115;49.296;10.602;2022-12-18T15:37:41;78.07;;;40.73;;
974;SDS011;6115;49.296;10.602;2022-12-18T15:42:42;72.40;;;39.03;;
974;SDS011;6115;49.296;10.602;2022-12-18T15:48:15;78.23;;;39.23;;
974;SDS011;6115;49.296;10.602;2022-12-18T15:53:21;66.77;;;32.80;;
974;SDS011;6115;49.296;10.602;2022-12-18T15:58:23;77.17;;;46.47;;
974;SDS011;6115;49.296;10.602;2022-12-18T16:03:23;83.77;;;50.43;;
974;SDS011;6115;49.296;10.602;2022-12-18T16:08:24;79.10;;;40.27;;
974;SDS011;6115;49.296;10.602;2022-12-18T16:13:24;71.00;;;36.30;;
974;SDS011;6115;49.296;10.602;2022-12-18T16:18:25;60.30;;;29.10;;
974;SDS011;6115;49.296;10.602;2022-12-18T16:23:25;63.73;;;28.90;;
974;SDS011;6115;49.296;10.602;2022-12-18T16:28:27;52.97;;;24.40;;
974;SDS011;6115;49.296;10.602;2022-12-18T16:33:27;53.40;;;22.13;;
974;SDS011;6115;49.296;10.602;2022-12-18T16:38:28;52.60;;;24.43;;
974;SDS011;6115;49.296;10.602;2022-12-18T16:43:28;44.33;;;20.40;;
974;SDS011;6115;49.296;10.602;2022-12-18T16:48:29;55.00;;;22.67;;
974;SDS011;6115;49.296;10.602;2022-12-18T16:53:30;57.60;;;23.97;;
974;SDS011;6115;49.296;10.602;2022-12-18T16:58:31;62.10;;;25.90;;
974;SDS011;6115;49.296;10.602;2022-12-18T17:03:32;62.30;;;27.73;;
974;SDS011;6115;49.296;10.602;2022-12-18T17:08:33;58.57;;;26.93;;
974;SDS011;6115;49.296;10.602;2022-12-18T17:13:34;62.10;;;29.47;;
974;SDS011;6115;49.296;10.602;2022-12-18T17:18:34;62.97;;;30.30;;
974;SDS011;6115;49.296;10.602;2022-12-18T17:23:35;54.97;;;27.57;;
974;SDS011;6115;49.296;10.602;2022-12-18T17:28:36;59.53;;;28.57;;
974;SDS011;6115;49.296;10.602;2022-12-18T17:33:39;57.60;;;26.87;;
974;SDS011;6115;49.296;10.602;2022-12-18T17:38:40;40.80;;;19.60;;
974;SDS011;6115;49.296;10.602;2022-12-18T17:43:40;52.30;;;22.57;;
974;SDS011;6115;49.296;10.602;2022-12-18T17:48:44;49.47;;;22.57;;
974;SDS011;6115;49.296;10.602;2022-12-18T17:53:45;68.60;;;28.93;;
974;SDS011;6115;49.296;10.602;2022-12-18T17:58:46;61.20;;;26.40;;
974;SDS011;6115;49.296;10.602;2022-12-18T18:03:47;62.10;;;28.67;;
974;SDS011;6115;49.296;10.602;2022-12-18T18:08:47;52.20;;;25.27;;
974;SDS011;6115;49.296;10.602;2022-12-18T18:13:48;64.50;;;29.57;;
974;SDS011;6115;49.296;10.602;2022-12-18T18:19:02;57.80;;;27.63;;
974;SDS011;6115;49.296;10.602;2022-12-18T18:24:08;66.90;;;35.20;;
974;SDS011;6115;49.296;10.602;2022-12-18T18:29:11;64.03;;;30.47;;
974;SDS011;6115;49.296;10.602;2022-12-18T18:34:18;71.00;;;35.30;;
974;SDS011;6115;49.296;10.602;2022-12-18T18:39:20;63.50;;;32.87;;
974;SDS011;6115;49.296;10.602;2022-12-18T18:44:21;67.53;;;34.50;;
974;SDS011;6115;49.296;10.602;2022-12-18T18:49:23;72.20;;;37.93;;
974;SDS011;6115;49.296;10.602;2022-12-18T18:54:26;70.67;;;38.70;;
974;SDS011;6115;49.296;10.602;2022-12-18T18:59:26;64.10;;;33.97;;
974;SDS011;6115;49.296;10.602;2022-12-18T19:04:27;73.27;;;40.00;;
974;SDS011;6115;49.296;10.602;2022-12-18T19:09:29;67.33;;;37.80;;
974;SDS011;6115;49.296;10.602;2022-12-18T19:14:30;82.57;;;45.13;;
974;SDS011;6115;49.296;10.602;2022-12-18T19:19:30;75.27;;;42.60;;
974;SDS011;6115;49.296;10.602;2022-12-18T19:24:31;63.83;;;31.80;;
974;SDS011;6115;49.296;10.602;2022-12-18T19:29:32;60.97;;;30.60;;
974;SDS011;6115;49.296;10.602;2022-12-18T19:34:32;58.97;;;28.00;;
974;SDS011;6115;49.296;10.602;2022-12-18T19:39:33;53.93;;;25.63;;
974;SDS011;6115;49.296;10.602;2022-12-18T19:44:34;58.30;;;25.60;;
974;SDS011;6115;49.296;10.602;2022-12-18T19:49:34;56.67;;;25.10;;
974;SDS011;6115;49.296;10.602;2022-12-18T19:54:36;63.73;;;27.90;;
974;SDS011;6115;49.296;10.602;2022-12-18T19:59:36;63.37;;;26.53;;
974;SDS011;6115;49.296;10.602;2022-12-18T20:04:37;53.73;;;23.73;;
974;SDS011;6115;49.296;10.602;2022-12-18T20:09:37;48.87;;;19.67;;
974;SDS011;6115;49.296;10.602;2022-12-18T20:14:38;43.43;;;21.60;;
974;SDS011;6115;49.296;10.602;2022-12-18T20:19:39;54.20;;;26.03;;
974;SDS011;6115;49.296;10.602;2022-12-18T20:24:39;58.80;;;28.17;;
974;SDS011;6115;49.296;10.602;2022-12-18T20:29:40;60.53;;;26.87;;
974;SDS011;6115;49.296;10.602;2022-12-18T20:34:42;61.40;;;30.00;;
974;SDS011;6115;49.296;10.602;2022-12-18T20:39:43;60.97;;;31.90;;
974;SDS011;6115;49.296;10.602;2022-12-18T20:44:43;62.00;;;30.60;;
974;SDS011;6115;49.296;10.602;2022-12-18T20:49:44;67.00;;;31.67;;
974;SDS011;6115;49.296;10.602;2022-12-18T20:54:45;73.70;;;35.73;;
974;SDS011;6115;49.296;10.602;2022-12-18T20:59:45;74.77;;;39.47;;
974;SDS011;6115;49.296;10.602;2022-12-18T21:04:46;65.93;;;36.93;;
974;SDS011;6115;49.296;10.602;2022-12-18T21:09:47;59.97;;;33.03;;
974;SDS011;6115;49.296;10.602;2022-12-18T21:14:48;59.73;;;26.33;;
974;SDS011;6115;49.296;10.602;2022-12-18T21:19:48;56.20;;;25.87;;
974;SDS011;6115;49.296;10.602;2022-12-18T21:24:49;59.80;;;26.07;;
974;SDS011;6115;49.296;10.602;2022-12-18T21:29:49;59.40;;;26.00;;
974;SDS011;6115;49.296;10.602;2022-12-18T21:34:51;50.70;;;23.30;;
974;SDS011;6115;49.296;10.602;2022-12-18T21:39:51;56.13;;;23.30;;
974;SDS011;6115;49.296;10.602;2022-12-18T21:44:52;49.43;;;22.03;;
974;SDS011;6115;49.296;10.602;2022-12-18T21:49:52;49.53;;;21.43;;
974;SDS011;6115;49.296;10.602;2022-12-18T21:54:53;53.97;;;23.33;;
974;SDS011;6115;49.296;10.602;2022-12-18T21:59:54;45.30;;;19.27;;
974;SDS011;6115;49.296;10.602;2022-12-18T22:04:54;52.23;;;23.70;;
974;SDS011;6115;49.296;10.602;2022-12-18T22:09:55;52.53;;;24.90;;
974;SDS011;6115;49.296;10.602;2022-12-18T22:14:55;51.17;;;24.77;;
974;SDS011;6115;49.296;10.602;2022-12-18T22:19:56;59.90;;;32.03;;
974;SDS011;6115;49.296;10.602;2022-12-18T22:24:56;69.60;;;35.83;;
974;SDS011;6115;49.296;10.602;2022-12-18T22:29:57;67.60;;;40.77;;
974;SDS011;6115;49.296;10.602;2022-12-18T22:35:04;73.00;;;43.17;;
974;SDS011;6115;49.296;10.602;2022-12-18T22:40:05;76.20;;;46.80;;
974;SDS011;6115;49.296;10.602;2022-12-18T22:45:06;93.47;;;54.80;;
974;SDS011;6115;49.296;10.602;2022-12-18T22:50:08;79.40;;;45.90;;
974;SDS011;6115;49.296;10.602;2022-12-18T22:55:11;82.67;;;48.83;;
974;SDS011;6115;49.296;10.602;2022-12-18T23:00:12;86.63;;;51.80;;
974;SDS011;6115;49.296;10.602;2022-12-18T23:05:13;76.33;;;49.20;;
974;SDS011;6115;49.296;10.602;2022-12-18T23:10:13;85.30;;;55.90;;
974;SDS011;6115;49.296;10.602;2022-12-18T23:15:15;91.87;;;64.67;;
974;SDS011;6115;49.296;10.602;2022-12-18T23:20:16;94.50;;;73.73;;
974;SDS011;6115;49.296;10.602;2022-12-18T23:25:16;99.80;;;78.77;;
974;SDS011;6115;49.296;10.602;2022-12-18T23:30:17;92.03;;;73.20;;
974;SDS011;6115;49.296;10.602;2022-12-18T23:35:17;86.30;;;64.03;;
974;SDS011;6115;49.296;10.602;2022-12-18T23:40:18;87.73;;;54.13;;
974;SDS011;6115;49.296;10.602;2022-12-18T23:45:18;80.67;;;52.17;;
974;SDS011;6115;49.296;10.602;2022-12-18T23:50:19;67.83;;;41.67;;
974;SDS011;6115;49.296;10.602;2022-12-18T23:55:19;76.07;;;47.23;;
